sensor_id;sensor_type;location;lat;lon;timestamp;P1;durP1;ratioP1;P2;durP2;ratioP2
6926;SDS011;3503;50.07605000;8.86719200;2023-05-07T00:06:36;3.20;;;1.53;;
6926;SDS011;3503;50.07605000;8.86719200;2023-05-07T00:21:39;4.00;;;1.80;;
6926;SDS011;3503;50.07605000;8.86719200;2023-05-07T00:36:43;3.10;;;1.50;;
6926;SDS011;3503;50.07605000;8.86719200;2023-05-07T00:51:46;3.77;;;1.80;;
6926;SDS011;3503;50.07605000;8.86719200;2023-05-07T01:06:49;3.10;;;1.40;;
6926;SDS011;3503;50.07605000;8.86719200;2023-05-07T01:21:59;4.00;;;1.77;;
6926;SDS011;3503;50.07605000;8.86719200;2023-05-07T01:37:05;3.73;;;2.20;;
6926;SDS011;3503;50.07605000;8.86719200;2023-05-07T01:52:09;3.07;;;2.10;;
6926;SDS011;3503;50.07605000;8.86719200;2023-05-07T02:07:12;3.53;;;1.50;;
6926;SDS011;3503;50.07605000;8.86719200;2023-05-07T02:22:15;8.10;;;1.90;;
6926;SDS011;3503;50.07605000;8.86719200;2023-05-07T02:37:19;4.27;;;1.60;;
6926;SDS011;3503;50.07605000;8.86719200;2023-05-07T02:52:22;3.70;;;2.07;;
6926;SDS011;3503;50.07605000;8.86719200;2023-05-07T03:07:25;5.37;;;2.90;;
6926;SDS011;3503;50.07605000;8.86719200;2023-05-07T03:22:28;6.70;;;1.97;;
6926;SDS011;3503;50.07605000;8.86719200;2023-05-07T03:37:31;5.20;;;2.33;;
6926;SDS011;3503;50.07605000;8.86719200;2023-05-07T03:52:34;3.67;;;2.10;;
6926;SDS011;3503;50.07605000;8.86719200;2023-05-07T04:07:37;4.37;;;2.63;;
6926;SDS011;3503;50.07605000;8.86719200;2023-05-07T04:22:40;4.90;;;2.53;;
6926;SDS011;3503;50.07605000;8.86719200;2023-05-07T04:37:44;6.17;;;2.60;;
6926;SDS011;3503;50.07605000;8.86719200;2023-05-07T04:52:47;4.07;;;2.60;;
6926;SDS011;3503;50.07605000;8.86719200;2023-05-07T05:07:50;3.80;;;2.27;;
6926;SDS011;3503;50.07605000;8.86719200;2023-05-07T05:22:54;4.43;;;2.33;;
6926;SDS011;3503;50.07605000;8.86719200;2023-05-07T05:37:57;3.53;;;2.17;;
6926;SDS011;3503;50.07605000;8.86719200;2023-05-07T05:53:00;3.43;;;2.33;;
6926;SDS011;3503;50.07605000;8.86719200;2023-05-07T06:08:03;4.37;;;2.50;;
6926;SDS011;3503;50.07605000;8.86719200;2023-05-07T06:23:07;3.80;;;2.47;;
6926;SDS011;3503;50.07605000;8.86719200;2023-05-07T06:38:10;4.77;;;2.67;;
6926;SDS011;3503;50.07605000;8.86719200;2023-05-07T06:53:13;5.67;;;2.87;;
6926;SDS011;3503;50.07605000;8.86719200;2023-05-07T07:08:17;6.23;;;3.00;;
6926;SDS011;3503;50.07605000;8.86719200;2023-05-07T07:23:20;5.20;;;2.90;;
6926;SDS011;3503;50.07605000;8.86719200;2023-05-07T07:38:23;4.60;;;3.47;;
6926;SDS011;3503;50.07605000;8.86719200;2023-05-07T07:53:26;8.00;;;5.30;;
6926;SDS011;3503;50.07605000;8.86719200;2023-05-07T08:08:29;4.53;;;2.90;;
6926;SDS011;3503;50.07605000;8.86719200;2023-05-07T08:23:32;5.77;;;3.07;;
6926;SDS011;3503;50.07605000;8.86719200;2023-05-07T08:38:36;5.33;;;2.80;;
6926;SDS011;3503;50.07605000;8.86719200;2023-05-07T08:53:39;4.87;;;2.70;;
6926;SDS011;3503;50.07605000;8.86719200;2023-05-07T09:08:45;4.30;;;3.27;;
6926;SDS011;3503;50.07605000;8.86719200;2023-05-07T09:23:53;5.00;;;3.73;;
6926;SDS011;3503;50.07605000;8.86719200;2023-05-07T09:38:56;4.40;;;2.73;;
6926;SDS011;3503;50.07605000;8.86719200;2023-05-07T09:54:02;3.60;;;2.20;;
6926;SDS011;3503;50.07605000;8.86719200;2023-05-07T10:09:05;4.47;;;2.87;;
6926;SDS011;3503;50.07605000;8.86719200;2023-05-07T10:24:10;6.60;;;2.63;;
6926;SDS011;3503;50.07605000;8.86719200;2023-05-07T10:39:17;4.17;;;2.60;;
6926;SDS011;3503;50.07605000;8.86719200;2023-05-07T10:54:21;4.87;;;2.20;;
6926;SDS011;3503;50.07605000;8.86719200;2023-05-07T11:09:25;3.43;;;2.23;;
6926;SDS011;3503;50.07605000;8.86719200;2023-05-07T11:25:00;5.13;;;2.63;;
6926;SDS011;3503;50.07605000;8.86719200;2023-05-07T11:55:09;2.87;;;1.80;;
6926;SDS011;3503;50.07605000;8.86719200;2023-05-07T12:10:12;3.03;;;2.00;;
6926;SDS011;3503;50.07605000;8.86719200;2023-05-07T12:25:16;5.83;;;3.17;;
6926;SDS011;3503;50.07605000;8.86719200;2023-05-07T12:40:21;2.03;;;1.53;;
6926;SDS011;3503;50.07605000;8.86719200;2023-05-07T12:55:24;3.37;;;2.20;;
6926;SDS011;3503;50.07605000;8.86719200;2023-05-07T13:10:27;2.60;;;1.83;;
6926;SDS011;3503;50.07605000;8.86719200;2023-05-07T13:25:31;3.30;;;1.70;;
6926;SDS011;3503;50.07605000;8.86719200;2023-05-07T13:40:34;5.30;;;2.60;;
6926;SDS011;3503;50.07605000;8.86719200;2023-05-07T13:55:37;2.93;;;1.50;;
6926;SDS011;3503;50.07605000;8.86719200;2023-05-07T14:10:41;4.40;;;2.67;;
6926;SDS011;3503;50.07605000;8.86719200;2023-05-07T14:25:44;2.53;;;1.57;;
6926;SDS011;3503;50.07605000;8.86719200;2023-05-07T14:40:49;2.77;;;2.00;;
6926;SDS011;3503;50.07605000;8.86719200;2023-05-07T14:55:52;3.40;;;1.90;;
6926;SDS011;3503;50.07605000;8.86719200;2023-05-07T15:10:55;4.00;;;1.67;;
6926;SDS011;3503;50.07605000;8.86719200;2023-05-07T15:25:58;6.13;;;1.80;;
6926;SDS011;3503;50.07605000;8.86719200;2023-05-07T15:41:02;3.53;;;1.47;;
6926;SDS011;3503;50.07605000;8.86719200;2023-05-07T15:56:06;3.57;;;1.40;;
6926;SDS011;3503;50.07605000;8.86719200;2023-05-07T16:11:09;3.13;;;1.80;;
6926;SDS011;3503;50.07605000;8.86719200;2023-05-07T16:26:12;3.77;;;1.60;;
6926;SDS011;3503;50.07605000;8.86719200;2023-05-07T16:41:15;4.77;;;2.60;;
6926;SDS011;3503;50.07605000;8.86719200;2023-05-07T16:56:18;3.20;;;2.63;;
6926;SDS011;3503;50.07605000;8.86719200;2023-05-07T17:11:22;2.70;;;2.17;;
6926;SDS011;3503;50.07605000;8.86719200;2023-05-07T17:26:27;4.87;;;3.40;;
6926;SDS011;3503;50.07605000;8.86719200;2023-05-07T17:41:32;4.57;;;2.87;;
6926;SDS011;3503;50.07605000;8.86719200;2023-05-07T17:56:37;5.53;;;3.30;;
6926;SDS011;3503;50.07605000;8.86719200;2023-05-07T18:11:41;8.57;;;3.80;;
6926;SDS011;3503;50.07605000;8.86719200;2023-05-07T18:26:44;4.73;;;2.20;;
6926;SDS011;3503;50.07605000;8.86719200;2023-05-07T18:41:49;5.20;;;1.97;;
6926;SDS011;3503;50.07605000;8.86719200;2023-05-07T18:56:53;5.90;;;2.53;;
6926;SDS011;3503;50.07605000;8.86719200;2023-05-07T19:11:56;6.13;;;3.17;;
6926;SDS011;3503;50.07605000;8.86719200;2023-05-07T19:27:00;4.93;;;2.23;;
6926;SDS011;3503;50.07605000;8.86719200;2023-05-07T19:42:03;5.97;;;1.90;;
6926;SDS011;3503;50.07605000;8.86719200;2023-05-07T19:57:06;3.30;;;2.20;;
6926;SDS011;3503;50.07605000;8.86719200;2023-05-07T20:12:09;7.23;;;2.47;;
6926;SDS011;3503;50.07605000;8.86719200;2023-05-07T20:27:13;6.50;;;3.17;;
6926;SDS011;3503;50.07605000;8.86719200;2023-05-07T20:42:16;12.70;;;3.80;;
6926;SDS011;3503;50.07605000;8.86719200;2023-05-07T20:57:19;8.60;;;4.47;;
6926;SDS011;3503;50.07605000;8.86719200;2023-05-07T21:12:22;11.40;;;5.10;;
6926;SDS011;3503;50.07605000;8.86719200;2023-05-07T21:27:26;9.10;;;4.60;;
6926;SDS011;3503;50.07605000;8.86719200;2023-05-07T21:42:29;8.23;;;5.53;;
6926;SDS011;3503;50.07605000;8.86719200;2023-05-07T21:57:32;6.00;;;4.10;;
6926;SDS011;3503;50.07605000;8.86719200;2023-05-07T22:12:36;8.53;;;4.40;;
6926;SDS011;3503;50.07605000;8.86719200;2023-05-07T22:27:39;9.37;;;6.07;;
6926;SDS011;3503;50.07605000;8.86719200;2023-05-07T22:42:43;8.57;;;6.20;;
6926;SDS011;3503;50.07605000;8.86719200;2023-05-07T22:57:46;9.63;;;6.73;;
6926;SDS011;3503;50.07605000;8.86719200;2023-05-07T23:12:49;7.37;;;5.53;;
6926;SDS011;3503;50.07605000;8.86719200;2023-05-07T23:27:52;11.90;;;7.77;;
6926;SDS011;3503;50.07605000;8.86719200;2023-05-07T23:42:55;13.03;;;7.37;;
6926;SDS011;3503;50.07605000;8.86719200;2023-05-07T23:57:58;11.53;;;7.13;;
